createdAt,value
2018-09-02T00:01:59.250Z,3.93
2018-09-02T00:04:28.200Z,4.43
2018-09-02T00:06:57.034Z,3.93
2018-09-02T00:09:25.796Z,4.20
2018-09-02T00:11:54.648Z,4.30
2018-09-02T00:14:23.577Z,3.97
2018-09-02T00:16:52.434Z,4.03
2018-09-02T00:19:21.442Z,3.90
2018-09-02T00:21:50.268Z,4.47
2018-09-02T00:24:19.594Z,3.93
2018-09-02T00:26:48.476Z,4.27
2018-09-02T00:29:17.569Z,3.83
2018-09-02T00:31:46.772Z,3.90
2018-09-02T00:34:15.827Z,3.93
2018-09-02T00:36:44.587Z,3.80
2018-09-02T00:39:13.482Z,3.87
2018-09-02T00:41:42.222Z,4.03
2018-09-02T00:44:11.094Z,4.33
2018-09-02T00:46:40.168Z,4.30
2018-09-02T00:49:09.062Z,4.23
2018-09-02T00:51:38.053Z,4.10
2018-09-02T00:54:07.163Z,4.20
2018-09-02T00:56:36.069Z,3.97
2018-09-02T00:59:04.995Z,4.23
2018-09-02T01:01:33.835Z,4.30
2018-09-02T01:04:02.845Z,4.13
2018-09-02T01:06:31.842Z,3.90
2018-09-02T01:09:00.628Z,3.97
2018-09-02T01:11:30.113Z,4.40
2018-09-02T01:13:59.050Z,3.80
2018-09-02T01:16:27.853Z,4.40
2018-09-02T01:18:56.776Z,3.77
2018-09-02T01:21:26.010Z,4.30
2018-09-02T01:23:55.065Z,3.77
2018-09-02T01:26:23.961Z,4.60
2018-09-02T01:28:52.775Z,4.37
2018-09-02T01:31:21.840Z,4.50
2018-09-02T01:33:50.668Z,4.57
2018-09-02T01:36:19.502Z,4.43
2018-09-02T01:38:48.280Z,4.40
2018-09-02T01:41:17.896Z,4.47
2018-09-02T01:43:46.856Z,4.47
2018-09-02T01:46:16.020Z,4.47
2018-09-02T01:48:44.872Z,4.70
2018-09-02T01:51:13.688Z,4.80
2018-09-02T01:53:42.574Z,4.50
2018-09-02T01:56:11.506Z,4.77
2018-09-02T01:58:40.384Z,4.73
2018-09-02T02:01:09.335Z,4.60
2018-09-02T02:03:38.143Z,4.93
2018-09-02T02:06:07.068Z,4.57
2018-09-02T02:08:35.938Z,4.60
2018-09-02T02:11:04.860Z,5.03
2018-09-02T02:13:33.627Z,5.10
2018-09-02T02:16:02.420Z,4.60
2018-09-02T02:18:31.390Z,5.07
2018-09-02T02:21:00.500Z,4.70
2018-09-02T02:23:29.314Z,4.57
2018-09-02T02:25:58.196Z,4.60
2018-09-02T02:28:26.960Z,5.10
2018-09-02T02:30:55.827Z,5.17
2018-09-02T02:33:24.968Z,5.17
2018-09-02T02:35:53.740Z,4.90
2018-09-02T02:38:22.630Z,4.93
2018-09-02T02:40:52.154Z,4.75
2018-09-02T02:43:20.960Z,4.67
2018-09-02T02:45:49.764Z,4.97
2018-09-02T02:48:18.636Z,4.73
2018-09-02T02:50:47.595Z,5.07
2018-09-02T02:53:16.432Z,5.30
2018-09-02T02:55:45.210Z,5.30
2018-09-02T02:58:14.154Z,4.90
2018-09-02T03:00:43.000Z,5.30
2018-09-02T03:03:12.069Z,5.10
2018-09-02T03:05:40.854Z,4.90
2018-09-02T03:08:09.711Z,4.87
2018-09-02T03:10:38.651Z,5.10
2018-09-02T03:13:07.681Z,5.43
2018-09-02T03:15:36.595Z,5.50
2018-09-02T03:18:05.393Z,5.30
2018-09-02T03:20:34.213Z,5.57
2018-09-02T03:23:03.041Z,5.60
2018-09-02T03:25:31.923Z,6.00
2018-09-02T03:28:00.847Z,5.50
2018-09-02T03:30:29.781Z,6.60
2018-09-02T03:32:58.617Z,6.00
2018-09-02T03:35:27.820Z,6.30
2018-09-02T03:37:56.918Z,6.10
2018-09-02T03:40:25.741Z,6.47
2018-09-02T03:42:54.585Z,6.17
2018-09-02T03:45:23.401Z,6.43
2018-09-02T03:47:52.298Z,6.57
2018-09-02T03:50:21.105Z,6.60
2018-09-02T03:52:49.984Z,6.73
2018-09-02T03:55:18.809Z,6.80
2018-09-02T03:57:47.823Z,7.00
2018-09-02T04:00:16.661Z,6.00
2018-09-02T04:02:45.528Z,7.13
2018-09-02T04:05:14.521Z,6.60
2018-09-02T04:07:43.328Z,6.70
2018-09-02T04:10:12.219Z,6.87
2018-09-02T04:12:41.165Z,7.60
2018-09-02T04:15:10.108Z,7.40
2018-09-02T04:17:39.069Z,7.73
2018-09-02T04:20:08.247Z,7.00
2018-09-02T04:22:37.107Z,7.23
2018-09-02T04:25:06.031Z,7.50
2018-09-02T04:27:34.925Z,7.40
2018-09-02T04:30:03.919Z,7.53
2018-09-02T04:32:32.791Z,7.70
2018-09-02T04:35:01.755Z,8.13
2018-09-02T04:37:30.561Z,8.40
2018-09-02T04:39:59.615Z,8.70
2018-09-02T04:42:28.549Z,9.97
2018-09-02T04:44:57.423Z,9.73
2018-09-02T04:47:26.272Z,8.90
2018-09-02T04:49:55.091Z,9.17
2018-09-02T04:52:23.994Z,9.77
2018-09-02T04:54:52.895Z,10.27
2018-09-02T04:57:21.715Z,10.17
2018-09-02T04:59:50.669Z,10.40
2018-09-02T05:02:19.451Z,10.00
2018-09-02T05:04:48.431Z,10.20
2018-09-02T05:07:17.131Z,10.63
2018-09-02T05:09:45.951Z,10.30
2018-09-02T05:12:14.813Z,10.77
2018-09-02T05:14:43.738Z,10.90
2018-09-02T05:17:12.626Z,10.60
2018-09-02T05:19:41.724Z,10.83
2018-09-02T05:22:11.393Z,10.88
2018-09-02T05:24:40.287Z,11.10
2018-09-02T05:27:09.099Z,11.47
2018-09-02T05:29:38.092Z,10.83
2018-09-02T05:32:07.291Z,10.97
2018-09-02T05:34:36.098Z,10.57
2018-09-02T05:37:05.282Z,12.03
2018-09-02T05:39:34.182Z,11.20
2018-09-02T05:42:03.216Z,11.90
2018-09-02T05:44:31.950Z,11.30
2018-09-02T05:47:00.878Z,11.03
2018-09-02T05:49:29.772Z,12.07
2018-09-02T05:51:58.656Z,12.03
2018-09-02T05:54:27.501Z,10.37
2018-09-02T05:56:56.362Z,10.17
2018-09-02T05:59:25.149Z,10.67
2018-09-02T06:01:54.009Z,11.10
2018-09-02T06:04:22.941Z,10.90
2018-09-02T06:06:51.927Z,11.67
2018-09-02T06:09:20.895Z,10.40
2018-09-02T06:11:49.820Z,10.77
2018-09-02T06:14:18.743Z,10.03
2018-09-02T06:16:47.886Z,9.83
2018-09-02T06:19:16.674Z,10.63
2018-09-02T06:21:45.612Z,10.10
2018-09-02T06:24:14.492Z,9.97
2018-09-02T06:26:43.404Z,10.53
2018-09-02T06:29:12.249Z,10.17
2018-09-02T06:31:40.999Z,10.90
2018-09-02T06:34:09.840Z,9.07
2018-09-02T06:36:39.334Z,8.87
2018-09-02T06:39:10.005Z,9.67
2018-09-02T06:41:38.856Z,9.20
2018-09-02T06:44:07.744Z,10.73
2018-09-02T06:46:36.802Z,9.10
2018-09-02T06:49:05.940Z,9.93
2018-09-02T06:51:34.896Z,9.43
2018-09-02T06:54:03.785Z,9.27
2018-09-02T06:56:32.553Z,8.83
2018-09-02T06:59:01.481Z,9.13
2018-09-02T07:01:30.390Z,9.37
2018-09-02T07:03:59.148Z,9.03
2018-09-02T07:06:28.127Z,9.23
2018-09-02T07:08:56.862Z,8.63
2018-09-02T07:11:25.726Z,9.60
2018-09-02T07:13:54.703Z,8.50
2018-09-02T07:16:23.600Z,8.60
2018-09-02T07:18:52.528Z,7.67
2018-09-02T07:21:21.485Z,7.70
2018-09-02T07:23:50.368Z,8.23
2018-09-02T07:26:19.199Z,7.10
2018-09-02T07:28:48.093Z,7.40
2018-09-02T07:31:17.039Z,7.30
2018-09-02T07:33:45.840Z,7.47
2018-09-02T07:36:14.628Z,6.33
2018-09-02T07:38:43.506Z,7.43
2018-09-02T07:41:12.330Z,7.03
2018-09-02T07:43:41.327Z,6.07
2018-09-02T07:46:10.258Z,6.50
2018-09-02T07:48:39.123Z,7.70
2018-09-02T07:51:07.914Z,6.73
2018-09-02T07:53:36.694Z,7.57
2018-09-02T07:56:05.672Z,6.73
2018-09-02T07:58:34.679Z,6.70
2018-09-02T08:01:03.564Z,6.90
2018-09-02T08:03:32.474Z,6.60
2018-09-02T08:06:01.321Z,6.67
2018-09-02T08:08:30.110Z,6.47
2018-09-02T08:10:59.009Z,6.20
2018-09-02T08:13:28.181Z,6.00
2018-09-02T08:16:10.584Z,5.53
2018-09-02T08:18:39.416Z,6.83
2018-09-02T08:21:08.419Z,7.10
2018-09-02T08:23:37.518Z,6.40
2018-09-02T08:26:07.016Z,6.37
2018-09-02T08:28:37.068Z,6.10
2018-09-02T08:31:06.127Z,6.57
2018-09-02T08:33:34.999Z,6.97
2018-09-02T08:36:04.003Z,5.97
2018-09-02T08:38:33.558Z,6.10
2018-09-02T08:41:02.491Z,5.70
2018-09-02T08:43:31.444Z,6.30
2018-09-02T08:46:00.281Z,5.70
2018-09-02T08:48:29.261Z,6.27
2018-09-02T08:50:58.014Z,5.80
2018-09-02T08:53:26.932Z,5.40
2018-09-02T08:55:55.714Z,5.37
2018-09-02T08:58:24.669Z,5.60
2018-09-02T09:00:53.446Z,5.73
2018-09-02T09:03:22.354Z,5.93
2018-09-02T09:05:51.300Z,5.03
2018-09-02T09:08:39.276Z,5.23
2018-09-02T09:11:08.006Z,5.20
2018-09-02T09:13:37.000Z,5.40
2018-09-02T09:16:05.768Z,4.90
2018-09-02T09:18:34.525Z,4.90
2018-09-02T09:21:03.361Z,4.60
2018-09-02T09:23:32.161Z,4.87
2018-09-02T09:26:00.967Z,4.20
2018-09-02T09:28:30.031Z,4.93
2018-09-02T09:30:58.824Z,5.00
2018-09-02T09:33:28.695Z,4.13
2018-09-02T09:35:57.467Z,4.40
2018-09-02T09:38:26.307Z,3.97
2018-09-02T09:40:55.104Z,3.90
2018-09-02T09:43:24.396Z,4.00
2018-09-02T09:45:53.475Z,4.57
2018-09-02T09:48:22.244Z,4.13
2018-09-02T09:50:51.266Z,4.17
2018-09-02T09:53:20.271Z,4.13
2018-09-02T09:55:49.441Z,4.27
2018-09-02T09:58:18.311Z,3.90
2018-09-02T10:00:49.048Z,4.63
2018-09-02T10:03:18.605Z,3.90
2018-09-02T10:05:47.598Z,3.73
2018-09-02T10:08:16.457Z,3.50
2018-09-02T10:10:45.172Z,3.60
2018-09-02T10:13:14.028Z,3.50
2018-09-02T10:15:42.988Z,3.37
2018-09-02T10:18:12.030Z,3.30
2018-09-02T10:20:40.682Z,3.13
2018-09-02T10:23:09.660Z,3.00
2018-09-02T10:25:38.525Z,3.30
2018-09-02T10:28:07.429Z,3.20
2018-09-02T10:30:36.164Z,3.07
2018-09-02T10:33:04.968Z,3.00
2018-09-02T10:35:33.702Z,2.60
2018-09-02T10:38:02.536Z,3.00
2018-09-02T10:40:31.384Z,2.90
2018-09-02T10:43:00.138Z,3.10
2018-09-02T10:45:29.067Z,3.00
2018-09-02T10:47:57.883Z,2.80
2018-09-02T10:50:26.859Z,3.10
2018-09-02T10:52:57.133Z,3.20
2018-09-02T10:55:25.885Z,3.20
2018-09-02T10:57:54.769Z,3.00
2018-09-02T11:00:23.627Z,3.40
2018-09-02T11:02:52.497Z,3.00
2018-09-02T11:05:27.835Z,3.00
2018-09-02T11:07:56.619Z,3.23
2018-09-02T11:10:25.531Z,3.07
2018-09-02T11:12:55.023Z,2.80
2018-09-02T11:15:24.162Z,2.73
2018-09-02T11:17:53.191Z,3.20
2018-09-02T11:20:22.260Z,3.20
2018-09-02T11:22:51.105Z,3.00
2018-09-02T11:25:19.978Z,3.20
2018-09-02T11:27:48.792Z,3.10
2018-09-02T11:30:17.669Z,3.30
2018-09-02T11:32:46.584Z,3.37
2018-09-02T11:35:15.483Z,3.07
2018-09-02T11:37:44.522Z,3.43
2018-09-02T11:40:13.377Z,3.27
2018-09-02T11:42:42.366Z,3.50
2018-09-02T11:45:11.360Z,3.30
2018-09-02T11:47:40.476Z,3.47
2018-09-02T11:50:09.271Z,3.57
2018-09-02T11:52:38.512Z,3.67
2018-09-02T11:55:09.282Z,3.43
2018-09-02T11:57:38.139Z,3.57
2018-09-02T12:00:07.573Z,3.57
2018-09-02T12:02:36.486Z,3.30
2018-09-02T12:05:05.488Z,3.30
2018-09-02T12:07:34.157Z,3.37
2018-09-02T12:10:02.925Z,3.17
2018-09-02T12:12:31.858Z,3.43
2018-09-02T12:15:00.738Z,3.20
2018-09-02T12:17:29.677Z,3.20
2018-09-02T12:19:58.679Z,3.33
2018-09-02T12:22:35.943Z,3.33
2018-09-02T12:25:04.781Z,3.03
2018-09-02T12:27:33.753Z,3.30
2018-09-02T12:30:02.656Z,4.33
2018-09-02T12:32:31.527Z,5.10
2018-09-02T12:35:00.627Z,4.03
2018-09-02T12:37:29.691Z,3.80
2018-09-02T12:39:58.668Z,3.90
2018-09-02T12:42:27.951Z,6.30
2018-09-02T12:44:57.001Z,4.33
2018-09-02T12:47:25.991Z,3.97
2018-09-02T12:49:54.834Z,4.23
2018-09-02T12:52:23.540Z,3.90
2018-09-02T12:54:52.369Z,3.83
2018-09-02T12:57:21.305Z,4.43
2018-09-02T12:59:50.241Z,4.70
2018-09-02T13:02:21.185Z,4.80
2018-09-02T13:05:00.555Z,3.80
2018-09-02T13:07:29.472Z,4.47
2018-09-02T13:09:58.465Z,3.80
2018-09-02T13:12:27.592Z,4.00
2018-09-02T13:14:56.442Z,4.30
2018-09-02T13:17:25.273Z,4.10
2018-09-02T13:19:54.099Z,4.40
2018-09-02T13:22:23.057Z,4.60
2018-09-02T13:24:52.195Z,4.67
2018-09-02T13:27:23.137Z,5.20
2018-09-02T13:29:52.202Z,5.80
2018-09-02T13:32:21.094Z,6.60
2018-09-02T13:34:49.970Z,5.63
2018-09-02T13:37:19.016Z,5.93
2018-09-02T13:39:47.893Z,5.13
2018-09-02T13:42:16.759Z,5.20
2018-09-02T13:44:46.029Z,6.20
2018-09-02T13:47:14.913Z,6.23
2018-09-02T13:49:43.799Z,6.80
2018-09-02T13:52:12.825Z,6.20
2018-09-02T13:54:41.908Z,6.60
2018-09-02T13:57:11.051Z,6.33
2018-09-02T13:59:40.009Z,7.23
2018-09-02T14:02:09.317Z,6.40
2018-09-02T14:04:38.130Z,6.80
2018-09-02T14:07:07.047Z,6.20
2018-09-02T14:09:37.522Z,6.83
2018-09-02T14:12:06.572Z,6.20
2018-09-02T14:14:35.518Z,5.70
2018-09-02T14:17:04.548Z,6.20
2018-09-02T14:19:33.366Z,5.73
2018-09-02T14:22:02.384Z,6.13
2018-09-02T14:24:31.400Z,6.60
2018-09-02T14:27:00.367Z,6.20
2018-09-02T14:29:29.294Z,6.80
2018-09-02T14:31:58.114Z,6.40
2018-09-02T14:34:29.453Z,6.00
2018-09-02T14:36:58.355Z,6.33
2018-09-02T14:39:27.427Z,6.63
2018-09-02T14:41:56.357Z,6.37
2018-09-02T14:44:25.235Z,6.77
2018-09-02T14:46:54.280Z,7.50
2018-09-02T14:49:34.247Z,6.33
2018-09-02T14:52:03.188Z,7.00
2018-09-02T14:54:32.108Z,7.73
2018-09-02T14:57:00.982Z,7.57
2018-09-02T14:59:29.956Z,7.70
2018-09-02T15:01:58.872Z,8.47
2018-09-02T15:04:27.747Z,8.20
2018-09-02T15:06:56.876Z,7.80
2018-09-02T15:09:25.952Z,8.43
2018-09-02T15:11:55.101Z,8.27
2018-09-02T15:14:23.910Z,8.33
2018-09-02T15:16:52.879Z,8.37
2018-09-02T15:19:21.782Z,8.70
2018-09-02T15:21:50.598Z,8.83
2018-09-02T15:24:19.488Z,7.80
2018-09-02T15:26:48.366Z,8.50
2018-09-02T15:29:17.216Z,8.80
2018-09-02T15:31:46.158Z,9.30
2018-09-02T15:34:15.080Z,8.03
2018-09-02T15:36:43.934Z,9.00
2018-09-02T15:39:12.890Z,9.33
2018-09-02T15:41:41.969Z,8.30
2018-09-02T15:44:11.458Z,7.67
2018-09-02T15:46:40.551Z,7.67
2018-09-02T15:49:09.673Z,7.67
2018-09-02T15:51:38.618Z,7.93
2018-09-02T15:54:07.628Z,7.00
2018-09-02T15:56:36.875Z,7.87
2018-09-02T15:59:06.011Z,7.87
2018-09-02T16:01:34.934Z,7.13
2018-09-02T16:04:03.758Z,7.17
2018-09-02T16:06:32.888Z,7.43
2018-09-02T16:09:01.678Z,7.43
2018-09-02T16:11:30.542Z,7.40
2018-09-02T16:13:59.422Z,7.27
2018-09-02T16:16:28.403Z,6.93
2018-09-02T16:18:57.384Z,6.17
2018-09-02T16:21:26.283Z,5.90
2018-09-02T16:23:55.174Z,6.07
2018-09-02T16:26:24.128Z,5.77
2018-09-02T16:28:53.320Z,5.37
2018-09-02T16:31:23.174Z,5.57
2018-09-02T16:33:52.005Z,5.83
2018-09-02T16:36:21.245Z,5.40
2018-09-02T16:38:50.236Z,5.90
2018-09-02T16:41:19.184Z,4.53
2018-09-02T16:43:48.325Z,4.90
2018-09-02T16:46:17.374Z,4.60
2018-09-02T16:48:46.409Z,4.80
2018-09-02T16:51:15.326Z,4.63
2018-09-02T16:53:44.397Z,4.97
2018-09-02T16:56:14.175Z,5.10
2018-09-02T16:58:43.125Z,4.53
2018-09-02T17:01:12.091Z,4.60
2018-09-02T17:03:45.109Z,5.00
2018-09-02T17:06:14.133Z,4.67
2018-09-02T17:08:42.955Z,5.00
2018-09-02T17:11:11.822Z,4.97
2018-09-02T17:13:40.912Z,5.30
2018-09-02T17:16:09.703Z,4.90
2018-09-02T17:18:38.805Z,5.10
2018-09-02T17:21:07.903Z,5.87
2018-09-02T17:23:36.920Z,5.53
2018-09-02T17:26:06.064Z,6.43
2018-09-02T17:28:34.928Z,5.93
2018-09-02T17:31:03.710Z,6.40
2018-09-02T17:33:32.573Z,6.30
2018-09-02T17:36:01.760Z,6.83
2018-09-02T17:38:31.277Z,7.03
2018-09-02T17:41:00.228Z,7.00
2018-09-02T17:43:29.244Z,6.90
2018-09-02T17:45:58.345Z,7.77
2018-09-02T17:48:27.189Z,7.40
2018-09-02T17:50:56.029Z,7.80
2018-09-02T17:53:24.974Z,7.50
2018-09-02T17:55:54.363Z,7.60
2018-09-02T17:58:23.346Z,8.50
2018-09-02T18:00:54.332Z,9.03
2018-09-02T18:03:23.172Z,8.47
2018-09-02T18:05:52.896Z,9.13
2018-09-02T18:08:22.093Z,8.90
2018-09-02T18:10:51.009Z,10.40
2018-09-02T18:13:19.983Z,10.40
2018-09-02T18:15:48.883Z,10.93
2018-09-02T18:18:19.868Z,10.83
2018-09-02T18:20:48.876Z,10.47
2018-09-02T18:23:17.724Z,10.78
2018-09-02T18:25:46.543Z,11.53
2018-09-02T18:28:18.599Z,11.20
2018-09-02T18:30:47.452Z,11.53
2018-09-02T18:33:16.462Z,10.98
2018-09-02T18:35:45.374Z,11.40
2018-09-02T18:38:14.602Z,11.63
2018-09-02T18:40:43.841Z,11.53
2018-09-02T18:43:12.865Z,11.33
2018-09-02T18:45:41.953Z,11.40
2018-09-02T18:48:10.771Z,11.73
2018-09-02T18:50:39.552Z,12.47
2018-09-02T18:53:08.466Z,12.10
2018-09-02T18:55:40.565Z,12.40
2018-09-02T18:58:09.723Z,12.77
2018-09-02T19:00:38.702Z,13.37
2018-09-02T19:03:08.456Z,12.37
2018-09-02T19:05:37.419Z,12.67
2018-09-02T19:08:06.351Z,13.50
2018-09-02T19:10:35.574Z,14.10
2018-09-02T19:13:05.066Z,13.87
2018-09-02T19:15:34.166Z,13.87
2018-09-02T19:18:03.371Z,15.67
2018-09-02T19:20:32.777Z,13.60
2018-09-02T19:23:01.655Z,14.83
2018-09-02T19:25:35.115Z,14.23
2018-09-02T19:28:03.984Z,14.47
2018-09-02T19:30:32.870Z,15.43
2018-09-02T19:33:01.790Z,13.65
2018-09-02T19:35:30.783Z,14.07
2018-09-02T19:37:59.827Z,14.47
2018-09-02T19:40:28.844Z,15.03
2018-09-02T19:42:57.599Z,15.37
2018-09-02T19:45:26.709Z,15.00
2018-09-02T19:47:55.756Z,14.43
2018-09-02T19:50:24.660Z,13.80
2018-09-02T19:52:53.595Z,14.90
2018-09-02T19:55:22.639Z,15.63
2018-09-02T19:57:51.450Z,15.27
2018-09-02T20:00:20.474Z,14.10
2018-09-02T20:02:50.232Z,15.60
2018-09-02T20:05:19.213Z,15.53
2018-09-02T20:07:48.137Z,16.07
2018-09-02T20:10:17.021Z,16.63
2018-09-02T20:12:46.505Z,15.60
2018-09-02T20:15:15.326Z,15.33
2018-09-02T20:17:44.259Z,16.40
2018-09-02T20:20:13.855Z,15.97
2018-09-02T20:22:42.901Z,16.57
2018-09-02T20:25:12.160Z,16.60
2018-09-02T20:27:41.038Z,16.63
2018-09-02T20:30:10.081Z,17.83
2018-09-02T20:32:38.965Z,17.67
2018-09-02T20:35:08.037Z,16.73
2018-09-02T20:37:37.335Z,18.57
2018-09-02T20:40:07.180Z,17.23
2018-09-02T20:42:36.373Z,16.57
2018-09-02T20:45:05.379Z,18.03
2018-09-02T20:47:34.142Z,17.87
2018-09-02T20:50:02.926Z,19.13
2018-09-02T20:52:32.169Z,19.53
2018-09-02T20:55:01.180Z,19.30
2018-09-02T20:57:30.333Z,18.47
2018-09-02T20:59:59.493Z,19.00
2018-09-02T21:02:28.407Z,20.37
2018-09-02T21:04:57.244Z,19.80
2018-09-02T21:07:26.104Z,19.20
2018-09-02T21:09:55.482Z,19.57
2018-09-02T21:12:24.224Z,19.93
2018-09-02T21:14:53.299Z,20.17
2018-09-02T21:17:22.221Z,20.17
2018-09-02T21:19:51.129Z,20.00
2018-09-02T21:22:20.039Z,20.37
2018-09-02T21:24:48.981Z,20.17
2018-09-02T21:27:17.946Z,20.17
2018-09-02T21:29:46.684Z,21.20
2018-09-02T21:32:15.520Z,19.80
2018-09-02T21:34:44.407Z,20.63
2018-09-02T21:37:13.474Z,19.83
2018-09-02T21:39:42.545Z,19.67
2018-09-02T21:42:11.369Z,18.87
2018-09-02T21:44:40.214Z,20.40
2018-09-02T21:47:09.153Z,18.80
2018-09-02T21:49:38.116Z,19.43
2018-09-02T21:52:07.007Z,20.60
2018-09-02T21:54:35.784Z,18.73
2018-09-02T21:57:04.563Z,21.47
2018-09-02T21:59:33.544Z,19.20
2018-09-02T22:02:02.486Z,18.33
2018-09-02T22:04:31.410Z,17.73
2018-09-02T22:07:00.278Z,19.40
2018-09-02T22:09:29.464Z,19.97
2018-09-02T22:11:58.375Z,19.70
2018-09-02T22:14:27.308Z,20.13
2018-09-02T22:16:56.179Z,21.23
2018-09-02T22:19:25.002Z,20.73
2018-09-02T22:21:53.872Z,22.60
2018-09-02T22:24:22.727Z,22.17
2018-09-02T22:26:51.552Z,20.80
2018-09-02T22:29:20.500Z,22.73
2018-09-02T22:31:49.325Z,22.30
2018-09-02T22:34:18.156Z,21.33
2018-09-02T22:36:46.979Z,20.03
2018-09-02T22:39:15.894Z,20.90
2018-09-02T22:41:44.750Z,21.20
2018-09-02T22:44:13.616Z,20.43
2018-09-02T22:46:42.500Z,20.80
2018-09-02T22:49:11.272Z,20.10
2018-09-02T22:51:40.159Z,19.90
2018-09-02T22:54:09.094Z,18.17
2018-09-02T22:56:38.216Z,19.33
2018-09-02T22:59:07.113Z,18.50
2018-09-02T23:01:36.074Z,19.83
2018-09-02T23:04:05.074Z,18.10
2018-09-02T23:06:34.162Z,19.37
2018-09-02T23:09:03.214Z,18.07
2018-09-02T23:11:32.222Z,18.40
2018-09-02T23:14:01.049Z,19.23
2018-09-02T23:16:29.960Z,19.70
2018-09-02T23:18:58.744Z,19.57
2018-09-02T23:21:27.541Z,18.90
2018-09-02T23:23:56.477Z,19.73
2018-09-02T23:26:25.615Z,20.47
2018-09-02T23:28:54.542Z,19.53
2018-09-02T23:31:23.639Z,20.57
2018-09-02T23:33:52.773Z,20.23
2018-09-02T23:36:21.809Z,21.93
2018-09-02T23:38:50.872Z,20.43
2018-09-02T23:41:19.772Z,19.67
2018-09-02T23:43:48.803Z,19.30
2018-09-02T23:46:17.670Z,18.93
2018-09-02T23:48:46.548Z,20.47
2018-09-02T23:51:15.384Z,20.00
2018-09-02T23:53:44.298Z,19.80
2018-09-02T23:56:13.056Z,19.87
2018-09-02T23:58:41.922Z,19.20
